Clifton, Ohio
Current Conditions -  °F | °C
As of 9:56 AM on Monday 24 Nov 2014 (Local Time) from KSGH Reporting Station
Overcast Overcast  
Wind Chill: 61°   Ceiling: 3600
Heat Index: 61°   Visibility: 8mi
Dew Point: 51°   Wind: 26mph
Humidity: 69%   Direction: 210°SSW
Pressure: 29.3"   Gusts: 41mph
Location:  39.8°N, 83.83°W
Report Text: KSGH 241456Z AUTO 21023G36KT 8SM BKN036 OVC046 16/11 A2930 RMK AO2 55008 T01610105 PK WND 21036/1447 SLP917 $
Loading
Personal Weather Stations






























Interactive Weather Map New forecast layout! Learn more

10-Day Weather Forecast

Advertisements
Track Severe Weather on mobile